Time,TemperatureF,DewpointF,PressureIn,WindDirection,WindDirectionDegrees,WindSpeedMPH,WindSpeedGustMPH,Humidity,HourlyPrecipIn,Conditions,Clouds,dailyrainin,SolarRadiationWatts/m^2,SoftwareType,DateUTC
2013-01-07 00:01:00,37.5,37.0,30.24,North,354,0.0,1.0,96,0.00,,,0.01,0,weatherlink.com 1.10,2013-01-07 06:01:00,
2013-01-07 00:16:00,37.2,37.0,30.24,North,354,0.0,0.0,97,0.00,,,0.01,0,weatherlink.com 1.10,2013-01-07 06:16:00,
2013-01-07 00:31:00,37.1,36.0,30.23,North,354,0.0,0.0,97,0.00,,,0.00,0,weatherlink.com 1.10,2013-01-07 06:31:00,
2013-01-07 00:46:00,36.9,36.0,30.23,North,354,0.0,0.0,97,0.00,,,0.00,0,weatherlink.com 1.10,2013-01-07 06:46:00,
2013-01-07 01:01:00,37.3,37.0,30.23,North,354,0.0,1.0,97,0.00,,,0.00,0,weatherlink.com 1.10,2013-01-07 07:01:00,
2013-01-07 01:16:00,37.2,37.0,30.22,North,354,0.0,0.0,97,0.00,,,0.00,0,weatherlink.com 1.10,2013-01-07 07:16:00,
2013-01-07 01:31:00,37.1,36.0,30.22,North,354,0.0,0.0,97,0.00,,,0.00,0,weatherlink.com 1.10,2013-01-07 07:31:00,
2013-01-07 01:46:00,37.7,37.0,30.22,NNE,14,0.0,2.0,98,0.00,,,0.00,0,weatherlink.com 1.10,2013-01-07 07:46:00,
2013-01-07 02:01:00,38.9,38.0,30.21,NE,50,0.0,4.0,98,0.00,,,0.00,0,weatherlink.com 1.10,2013-01-07 08:01:00,
2013-01-07 02:16:00,39.6,39.0,30.21,ENE,77,0.0,2.0,97,0.00,,,0.00,0,weatherlink.com 1.10,2013-01-07 08:16:00,
2013-01-07 02:31:00,39.8,39.0,30.21,ENE,75,0.0,5.0,96,0.00,,,0.00,0,weatherlink.com 1.10,2013-01-07 08:31:00,
2013-01-07 02:46:00,40.0,39.0,30.20,ENE,75,0.0,2.0,95,0.00,,,0.00,0,weatherlink.com 1.10,2013-01-07 08:46:00,
2013-01-07 03:01:00,40.1,39.0,30.20,ENE,70,0.0,2.0,95,0.00,,,0.00,0,weatherlink.com 1.10,2013-01-07 09:01:00,
2013-01-07 03:16:00,40.2,39.0,30.20,ENE,70,0.0,3.0,94,0.00,,,0.00,0,weatherlink.com 1.10,2013-01-07 09:16:00,
2013-01-07 03:31:00,40.7,39.0,30.20,ENE,66,0.0,3.0,93,0.00,,,0.00,0,weatherlink.com 1.10,2013-01-07 09:31:00,
2013-01-07 03:46:00,40.8,39.0,30.21,ENE,65,1.0,3.0,92,0.00,,,0.00,0,weatherlink.com 1.10,2013-01-07 09:46:00,
2013-01-07 04:01:00,41.0,39.0,30.20,ENE,71,0.0,1.0,92,0.00,,,0.00,0,weatherlink.com 1.10,2013-01-07 10:01:00,
2013-01-07 04:16:00,40.2,38.0,30.20,ENE,71,0.0,0.0,92,0.00,,,0.00,0,weatherlink.com 1.10,2013-01-07 10:16:00,
2013-01-07 04:31:00,39.2,37.0,30.20,ENE,71,0.0,0.0,92,0.00,,,0.00,0,weatherlink.com 1.10,2013-01-07 10:31:00,
2013-01-07 04:46:00,38.5,37.0,30.20,ENE,71,0.0,1.0,94,0.00,,,0.00,0,weatherlink.com 1.10,2013-01-07 10:46:00,
2013-01-07 05:01:00,37.7,36.0,30.20,ENE,71,0.0,0.0,94,0.00,,,0.00,0,weatherlink.com 1.10,2013-01-07 11:01:00,
2013-01-07 05:16:00,37.1,36.0,30.20,ENE,71,0.0,0.0,95,0.00,,,0.00,0,weatherlink.com 1.10,2013-01-07 11:16:00,
2013-01-07 05:31:00,36.5,35.0,30.20,ENE,71,0.0,0.0,95,0.00,,,0.00,0,weatherlink.com 1.10,2013-01-07 11:31:00,
2013-01-07 05:46:00,36.0,35.0,30.21,ENE,71,0.0,0.0,95,0.00,,,0.00,0,weatherlink.com 1.10,2013-01-07 11:46:00,
2013-01-07 06:01:00,35.5,35.0,30.20,ENE,71,0.0,0.0,96,0.00,,,0.00,0,weatherlink.com 1.10,2013-01-07 12:01:00,
2013-01-07 06:16:00,35.0,34.0,30.20,ENE,71,0.0,0.0,96,0.00,,,0.00,0,weatherlink.com 1.10,2013-01-07 12:16:00,
2013-01-07 06:31:00,35.4,35.0,30.20,ENE,71,0.0,0.0,97,0.00,,,0.00,0,weatherlink.com 1.10,2013-01-07 12:31:00,
2013-01-07 06:46:00,34.9,34.0,30.20,ENE,71,1.0,1.0,96,0.00,,,0.00,0,weatherlink.com 1.10,2013-01-07 12:46:00,
2013-01-07 07:01:00,35.5,35.0,30.21,ENE,66,0.0,2.0,97,0.00,,,0.00,0,weatherlink.com 1.10,2013-01-07 13:01:00,
2013-01-07 07:16:00,36.2,36.0,30.22,ENE,66,0.0,0.0,98,0.00,,,0.00,0,weatherlink.com 1.10,2013-01-07 13:16:00,
2013-01-07 07:31:00,36.2,36.0,30.23,ENE,58,0.0,2.0,97,0.00,,,0.00,14,weatherlink.com 1.10,2013-01-07 13:31:00,
2013-01-07 07:46:00,38.4,38.0,30.22,NNE,25,0.0,3.0,98,0.00,,,0.00,32,weatherlink.com 1.10,2013-01-07 13:46:00,
2013-01-07 08:02:00,40.4,40.0,30.23,NE,43,1.0,6.0,98,0.00,,,0.00,72,weatherlink.com 1.10,2013-01-07 14:02:00,
2013-01-07 08:16:00,42.1,41.0,30.22,NE,54,3.0,9.0,95,0.00,,,0.00,127,weatherlink.com 1.10,2013-01-07 14:16:00,
2013-01-07 08:31:00,43.9,42.0,30.23,ENE,58,3.0,6.0,92,0.00,,,0.00,160,weatherlink.com 1.10,2013-01-07 14:31:00,
2013-01-07 08:46:00,44.1,41.0,30.23,ENE,78,5.0,8.0,89,0.00,,,0.00,76,weatherlink.com 1.10,2013-01-07 14:46:00,
2013-01-07 09:01:00,44.5,42.0,30.23,ESE,108,3.0,5.0,90,0.00,,,0.00,257,weatherlink.com 1.10,2013-01-07 15:01:00,
2013-01-07 09:17:00,45.8,42.0,30.23,East,93,2.0,7.0,86,0.00,,,0.00,346,weatherlink.com 1.10,2013-01-07 15:17:00,
2013-01-07 09:32:00,47.5,43.0,30.23,East,85,7.0,9.0,83,0.00,,,0.00,390,weatherlink.com 1.10,2013-01-07 15:32:00,
2013-01-07 09:48:00,48.2,43.0,30.23,ENE,64,4.0,7.0,81,0.00,,,0.00,236,weatherlink.com 1.10,2013-01-07 15:48:00,
2013-01-07 10:02:00,48.4,42.0,30.23,ENE,75,1.0,7.0,79,0.00,,,0.00,135,weatherlink.com 1.10,2013-01-07 16:02:00,
2013-01-07 10:17:00,48.4,43.0,30.23,East,94,5.0,7.0,80,0.00,,,0.00,403,weatherlink.com 1.10,2013-01-07 16:17:00,
2013-01-07 10:32:00,49.4,43.0,30.23,ENE,62,1.0,7.0,78,0.00,,,0.00,476,weatherlink.com 1.10,2013-01-07 16:32:00,
2013-01-07 10:47:00,50.8,44.0,30.22,ESE,112,5.0,8.0,76,0.00,,,0.00,510,weatherlink.com 1.10,2013-01-07 16:47:00,
2013-01-07 11:02:00,51.4,44.0,30.21,NE,54,5.0,8.0,77,0.00,,,0.00,575,weatherlink.com 1.10,2013-01-07 17:02:00,
2013-01-07 11:17:00,52.5,45.0,30.21,ENE,70,3.0,8.0,75,0.00,,,0.00,519,weatherlink.com 1.10,2013-01-07 17:17:00,
2013-01-07 11:32:00,53.5,45.0,30.20,East,101,5.0,8.0,73,0.00,,,0.00,534,weatherlink.com 1.10,2013-01-07 17:32:00,
2013-01-07 11:47:00,54.2,45.0,30.19,East,92,5.0,9.0,71,0.00,,,0.00,624,weatherlink.com 1.10,2013-01-07 17:47:00,
2013-01-07 12:02:00,54.5,44.0,30.18,ENE,75,0.0,6.0,69,0.00,,,0.00,445,weatherlink.com 1.10,2013-01-07 18:02:00,
2013-01-07 12:17:00,54.9,45.0,30.17,ESE,110,4.0,9.0,70,0.00,,,0.00,457,weatherlink.com 1.10,2013-01-07 18:17:00,
2013-01-07 12:32:00,55.3,45.0,30.16,ENE,64,3.0,5.0,69,0.00,,,0.00,399,weatherlink.com 1.10,2013-01-07 18:32:00,
2013-01-07 12:47:00,56.1,46.0,30.14,ESE,110,3.0,7.0,69,0.00,,,0.00,541,weatherlink.com 1.10,2013-01-07 18:47:00,
2013-01-07 13:02:00,56.3,45.0,30.14,South,174,2.0,7.0,67,0.00,,,0.00,330,weatherlink.com 1.10,2013-01-07 19:02:00,
2013-01-07 13:17:00,56.8,46.0,30.13,East,100,3.0,6.0,67,0.00,,,0.00,207,weatherlink.com 1.10,2013-01-07 19:17:00,
2013-01-07 13:32:00,56.0,46.0,30.12,SE,131,4.0,4.0,68,0.00,,,0.00,330,weatherlink.com 1.10,2013-01-07 19:32:00,
2013-01-07 13:48:00,56.2,46.0,30.11,East,96,2.0,5.0,69,0.00,,,0.00,190,weatherlink.com 1.10,2013-01-07 19:48:00,
2013-01-07 14:03:00,56.2,46.0,30.10,ESE,109,2.0,3.0,69,0.00,,,0.00,220,weatherlink.com 1.10,2013-01-07 20:03:00,
2013-01-07 14:19:00,56.0,46.0,30.10,ESE,105,2.0,7.0,70,0.00,,,0.00,262,weatherlink.com 1.10,2013-01-07 20:19:00,
2013-01-07 14:33:00,56.0,46.0,30.10,ENE,76,1.0,6.0,70,0.00,,,0.00,265,weatherlink.com 1.10,2013-01-07 20:33:00,
2013-01-07 14:48:00,56.2,46.0,30.10,East,97,5.0,7.0,69,0.00,,,0.00,195,weatherlink.com 1.10,2013-01-07 20:48:00,
2013-01-07 15:03:00,55.9,46.0,30.11,East,97,2.0,7.0,70,0.00,,,0.00,139,weatherlink.com 1.10,2013-01-07 21:03:00,
2013-01-07 15:19:00,55.8,46.0,30.11,East,93,2.0,5.0,70,0.00,,,0.00,149,weatherlink.com 1.10,2013-01-07 21:19:00,
2013-01-07 15:33:00,56.0,46.0,30.10,NNE,16,2.0,5.0,70,0.00,,,0.00,102,weatherlink.com 1.10,2013-01-07 21:33:00,
2013-01-07 15:49:00,56.0,46.0,30.10,ENE,64,3.0,4.0,70,0.00,,,0.00,97,weatherlink.com 1.10,2013-01-07 21:49:00,
2013-01-07 16:05:00,55.7,46.0,30.09,ENE,74,1.0,4.0,71,0.00,,,0.00,33,weatherlink.com 1.10,2013-01-07 22:05:00,
2013-01-07 16:19:00,55.5,47.0,30.09,ENE,64,2.0,5.0,73,0.00,,,0.00,70,weatherlink.com 1.10,2013-01-07 22:19:00,
2013-01-07 16:34:00,55.4,47.0,30.09,ESE,116,3.0,5.0,73,0.00,,,0.00,35,weatherlink.com 1.10,2013-01-07 22:34:00,
2013-01-07 16:49:00,55.2,47.0,30.08,East,85,0.0,5.0,73,0.00,,,0.00,37,weatherlink.com 1.10,2013-01-07 22:49:00,
2013-01-07 17:04:00,54.7,46.0,30.09,East,86,0.0,3.0,73,0.00,,,0.00,37,weatherlink.com 1.10,2013-01-07 23:04:00,
2013-01-07 17:20:00,54.2,46.0,30.09,East,86,0.0,1.0,75,0.00,,,0.00,16,weatherlink.com 1.10,2013-01-07 23:20:00,
2013-01-07 17:34:00,53.3,47.0,30.08,East,86,0.0,0.0,78,0.00,,,0.00,0,weatherlink.com 1.10,2013-01-07 23:34:00,
2013-01-07 17:50:00,51.8,47.0,30.07,East,85,0.0,0.0,82,0.00,,,0.00,0,weatherlink.com 1.10,2013-01-07 23:50:00,
2013-01-07 18:04:00,50.8,46.0,30.08,East,86,0.0,0.0,84,0.00,,,0.00,0,weatherlink.com 1.10,2013-01-08 00:04:00,
2013-01-07 18:19:00,49.9,46.0,30.08,East,85,2.0,2.0,86,0.00,,,0.00,0,weatherlink.com 1.10,2013-01-08 00:19:00,
2013-01-07 18:35:00,50.2,46.0,30.07,East,89,0.0,2.0,84,0.00,,,0.00,0,weatherlink.com 1.10,2013-01-08 00:35:00,
2013-01-07 18:50:00,49.7,45.0,30.07,East,89,0.0,2.0,85,0.00,,,0.00,0,weatherlink.com 1.10,2013-01-08 00:50:00,
2013-01-07 19:05:00,48.5,45.0,30.06,East,89,0.0,1.0,86,0.00,,,0.00,0,weatherlink.com 1.10,2013-01-08 01:05:00,
2013-01-07 19:20:00,49.1,45.0,30.06,East,89,0.0,3.0,85,0.00,,,0.00,0,weatherlink.com 1.10,2013-01-08 01:20:00,
2013-01-07 19:35:00,49.3,45.0,30.07,East,89,0.0,1.0,86,0.00,,,0.00,0,weatherlink.com 1.10,2013-01-08 01:35:00,
2013-01-07 19:50:00,48.7,45.0,30.07,East,89,0.0,1.0,86,0.00,,,0.00,0,weatherlink.com 1.10,2013-01-08 01:50:00,
2013-01-07 20:06:00,48.0,44.0,30.07,East,89,0.0,1.0,87,0.00,,,0.00,0,weatherlink.com 1.10,2013-01-08 02:06:00,
2013-01-07 20:20:00,47.3,45.0,30.07,East,89,0.0,1.0,90,0.00,,,0.00,0,weatherlink.com 1.10,2013-01-08 02:20:00,
2013-01-07 20:35:00,46.7,44.0,30.07,East,90,0.0,0.0,91,0.00,,,0.00,0,weatherlink.com 1.10,2013-01-08 02:35:00,
2013-01-07 20:50:00,46.1,44.0,30.05,East,89,0.0,0.0,92,0.00,,,0.00,0,weatherlink.com 1.10,2013-01-08 02:50:00,
2013-01-07 21:21:00,46.0,44.0,30.06,East,90,0.0,0.0,93,0.00,,,0.00,0,weatherlink.com 1.10,2013-01-08 03:21:00,
2013-01-07 21:35:00,46.5,45.0,30.07,East,89,1.0,2.0,94,0.00,,,0.00,0,weatherlink.com 1.10,2013-01-08 03:35:00,
2013-01-07 21:51:00,47.2,45.0,30.05,East,89,0.0,1.0,93,0.00,,,0.00,0,weatherlink.com 1.10,2013-01-08 03:51:00,
2013-01-07 22:06:00,47.7,46.0,30.05,East,89,0.0,0.0,93,0.00,,,0.00,0,weatherlink.com 1.10,2013-01-08 04:06:00,
2013-01-07 22:21:00,48.1,46.0,30.04,East,89,0.0,1.0,93,0.00,,,0.00,0,weatherlink.com 1.10,2013-01-08 04:21:00,
2013-01-07 22:36:00,48.8,47.0,30.04,East,89,0.0,3.0,92,0.00,,,0.00,0,weatherlink.com 1.10,2013-01-08 04:36:00,
2013-01-07 22:51:00,49.6,47.0,30.04,East,90,2.0,3.0,89,0.00,,,0.00,0,weatherlink.com 1.10,2013-01-08 04:51:00,
2013-01-07 23:06:00,50.1,46.0,30.02,ENE,66,2.0,3.0,87,0.00,,,0.00,0,weatherlink.com 1.10,2013-01-08 05:06:00,
2013-01-07 23:22:00,50.5,46.0,30.02,ENE,77,1.0,6.0,85,0.00,,,0.00,0,weatherlink.com 1.10,2013-01-08 05:22:00,
2013-01-07 23:36:00,50.5,46.0,30.01,East,80,2.0,4.0,85,0.00,,,0.00,0,weatherlink.com 1.10,2013-01-08 05:36:00,
2013-01-07 23:51:00,50.9,47.0,30.03,ENE,78,0.0,2.0,85,0.00,,,0.00,0,weatherlink.com 1.10,2013-01-08 05:51:00,